Time;durP1;ratioP1;P1;durP2;ratioP2;P2;SDS_P1;SDS_P2;PMS_P1;PMS_P2;Temp;Humidity;BMP_temperature;BMP_pressure;BME280_temperature;BME280_humidity;BME280_pressure;Samples;Min_cycle;Max_cycle;Signal;HPM_P1;HPM_P2
2022/10/05 00:01:45;;;;;;;1999.90;999.90;;;13.90;99.90;;;;;;5013075;28;20748;-69
2022/10/05 00:04:27;;;;;;;1999.90;999.90;;;13.90;99.90;;;;;;5013305;28;20910;-69
2022/10/05 00:07:12;;;;;;;1999.90;999.90;;;13.90;99.90;;;;;;5013176;28;20469;-69
2022/10/05 00:09:38;;;;;;;1999.90;999.90;;;13.90;99.90;;;;;;5013085;28;20500;-69
2022/10/05 00:12:17;;;;;;;1999.90;999.90;;;13.80;99.90;;;;;;5012907;28;20946;-69
2022/10/05 00:14:44;;;;;;;1999.90;999.90;;;13.80;99.90;;;;;;5012549;28;20229;-69
2022/10/05 00:17:18;;;;;;;1999.90;999.90;;;13.80;99.90;;;;;;5012917;28;20404;-70
2022/10/05 00:19:45;;;;;;;1999.90;999.90;;;13.70;99.90;;;;;;5013169;28;20498;-69
2022/10/05 00:22:16;;;;;;;1999.90;999.90;;;13.70;99.90;;;;;;5012899;28;20791;-68
2022/10/05 00:24:43;;;;;;;1999.90;999.90;;;13.70;99.90;;;;;;5012760;28;21045;-69
2022/10/05 00:27:25;;;;;;;1999.90;999.90;;;13.70;99.90;;;;;;5012664;28;20405;-69
2022/10/05 00:29:56;;;;;;;1999.90;999.90;;;13.70;99.90;;;;;;5013145;28;20516;-69
2022/10/05 00:32:22;;;;;;;1999.90;999.90;;;13.60;99.90;;;;;;5012765;28;20418;-69
2022/10/05 00:34:47;;;;;;;1999.90;999.90;;;13.50;99.90;;;;;;5011919;28;20926;-69
2022/10/05 00:37:13;;;;;;;1999.90;999.90;;;13.50;99.90;;;;;;5012395;28;20589;-69
2022/10/05 00:39:41;;;;;;;1999.90;999.90;;;13.50;99.90;;;;;;5012668;28;20247;-69
2022/10/05 00:42:21;;;;;;;1999.90;999.90;;;13.50;99.90;;;;;;5012812;28;20179;-69
2022/10/05 00:44:55;;;;;;;1999.90;999.90;;;13.50;99.90;;;;;;5012660;28;20446;-69
2022/10/05 00:47:21;;;;;;;1999.90;999.90;;;13.40;99.90;;;;;;5012542;28;20416;-68
2022/10/05 00:50:13;;;;;;;1999.90;999.90;;;13.40;99.90;;;;;;5011796;28;20595;-68
2022/10/05 00:53:06;;;;;;;1999.90;999.90;;;13.50;99.90;;;;;;5012124;28;20173;-69
2022/10/05 00:55:52;;;;;;;1999.90;999.90;;;13.40;99.90;;;;;;5012443;28;20457;-68
2022/10/05 00:58:35;;;;;;;1999.90;999.90;;;13.40;99.90;;;;;;5012278;28;20407;-69
2022/10/05 01:01:10;;;;;;;1999.90;999.90;;;13.40;99.90;;;;;;5012664;28;20494;-69
2022/10/05 01:03:50;;;;;;;1999.90;999.90;;;13.50;99.90;;;;;;5012384;28;20818;-68
2022/10/05 01:06:29;;;;;;;1999.90;999.90;;;13.50;99.90;;;;;;5011866;28;20799;-69
2022/10/05 01:09:40;;;;;;;1999.90;999.90;;;13.50;99.90;;;;;;5012360;28;20411;-69
2022/10/05 01:12:20;;;;;;;1999.90;999.90;;;13.40;99.90;;;;;;4976001;28;20451;-69
2022/10/05 01:15:03;;;;;;;1999.90;999.90;;;13.40;99.90;;;;;;5015430;28;20882;-68
2022/10/05 01:18:11;;;;;;;1999.90;999.90;;;13.40;99.90;;;;;;5015650;28;20401;-68
2022/10/05 01:20:43;;;;;;;1999.90;999.90;;;13.40;99.90;;;;;;5015305;28;20928;-69
2022/10/05 01:23:29;;;;;;;1999.90;999.90;;;13.30;99.90;;;;;;5015410;28;20436;-68
2022/10/05 01:26:22;;;;;;;1999.90;999.90;;;13.30;99.90;;;;;;5014879;28;20440;-68
2022/10/05 01:29:09;;;;;;;1999.90;999.90;;;13.20;99.90;;;;;;5014867;28;20489;-69
2022/10/05 01:31:55;;;;;;;1999.90;999.90;;;13.10;99.90;;;;;;5014943;28;20917;-68
2022/10/05 01:34:25;;;;;;;1999.90;999.90;;;13.10;99.90;;;;;;5014878;28;20402;-69
2022/10/05 01:36:59;;;;;;;1999.90;999.90;;;13.00;99.90;;;;;;5014503;28;20449;-70
2022/10/05 01:39:59;;;;;;;1999.90;999.90;;;12.90;99.90;;;;;;5015181;28;20400;-70
2022/10/05 01:42:30;;;;;;;1999.90;999.90;;;12.90;99.90;;;;;;5015844;28;20415;-70
2022/10/05 01:45:17;;;;;;;1999.90;999.90;;;12.90;99.90;;;;;;5015529;28;20846;-70
2022/10/05 01:47:46;;;;;;;1999.90;999.90;;;12.80;99.90;;;;;;5015546;28;20887;-69
2022/10/05 01:50:36;;;;;;;1999.90;999.90;;;12.90;99.90;;;;;;5015011;28;20418;-69
2022/10/05 01:53:01;;;;;;;1999.90;999.90;;;12.80;99.90;;;;;;5014619;28;20419;-68
2022/10/05 01:55:34;;;;;;;1999.90;999.90;;;12.80;99.90;;;;;;5014204;28;20456;-69
2022/10/05 01:58:25;;;;;;;1999.90;999.90;;;12.70;99.90;;;;;;5014294;28;20173;-69
2022/10/05 02:01:15;;;;;;;1999.90;999.90;;;12.70;99.90;;;;;;5015450;28;20406;-69
2022/10/05 02:03:48;;;;;;;1999.90;999.90;;;12.60;99.90;;;;;;5015643;28;20488;-69
2022/10/05 02:06:21;;;;;;;1999.90;999.90;;;12.60;99.90;;;;;;5010196;28;20446;-69
2022/10/05 02:09:07;;;;;;;1999.90;999.90;;;12.60;99.90;;;;;;4994890;28;20415;-69
2022/10/05 02:11:35;;;;;;;1999.90;999.90;;;12.50;99.90;;;;;;4995091;28;20504;-69
2022/10/05 02:14:23;;;;;;;1999.90;999.90;;;12.60;99.90;;;;;;4995872;28;20491;-69
2022/10/05 02:16:52;;;;;;;1999.90;999.90;;;12.50;99.90;;;;;;4994241;28;20458;-68
2022/10/05 02:19:22;;;;;;;1999.90;999.90;;;12.60;99.90;;;;;;4994316;28;20409;-68
2022/10/05 02:21:53;;;;;;;1999.90;999.90;;;12.60;99.90;;;;;;4993379;28;20426;-68
2022/10/05 02:24:28;;;;;;;1999.90;999.90;;;12.60;99.90;;;;;;4994604;28;20803;-68
2022/10/05 02:26:55;;;;;;;1999.90;999.90;;;12.60;99.90;;;;;;4994094;28;20431;-69
2022/10/05 02:29:25;;;;;;;1999.90;999.90;;;12.50;99.90;;;;;;4994571;28;20406;-69
2022/10/05 02:32:04;;;;;;;1999.90;999.90;;;12.50;99.90;;;;;;4995079;28;20444;-69
2022/10/05 02:34:36;;;;;;;1999.90;999.90;;;12.50;99.90;;;;;;4995457;28;20438;-69
2022/10/05 02:37:24;;;;;;;1999.90;999.90;;;12.60;99.90;;;;;;4995250;28;20418;-69
2022/10/05 02:40:20;;;;;;;1999.90;999.90;;;12.60;99.90;;;;;;4995016;28;20393;-70
2022/10/05 02:43:07;;;;;;;1999.90;999.90;;;12.60;99.90;;;;;;4994751;28;20937;-68
2022/10/05 02:45:40;;;;;;;1999.90;999.90;;;12.70;99.90;;;;;;4993813;28;20873;-68
2022/10/05 02:48:20;;;;;;;1999.90;999.90;;;12.70;99.90;;;;;;4993922;28;20411;-69
2022/10/05 02:50:58;;;;;;;1999.90;999.90;;;12.60;99.90;;;;;;4994734;28;20405;-69
2022/10/05 02:53:29;;;;;;;1999.90;999.90;;;12.60;99.90;;;;;;4994973;28;20414;-69
2022/10/05 02:56:10;;;;;;;1999.90;999.90;;;12.60;99.90;;;;;;4994160;28;20457;-69
2022/10/05 02:59:01;;;;;;;1999.90;999.90;;;12.70;99.90;;;;;;4993587;28;20515;-69
2022/10/05 03:01:35;;;;;;;1999.90;999.90;;;12.70;99.90;;;;;;4975218;28;20850;-69
2022/10/05 03:04:38;;;;;;;1999.90;999.90;;;12.60;99.90;;;;;;4993558;28;20410;-69
2022/10/05 03:07:11;;;;;;;1999.90;999.90;;;12.60;99.90;;;;;;4987201;28;20463;-69
2022/10/05 03:10:01;;;;;;;1999.90;999.90;;;12.60;99.90;;;;;;4993475;28;21061;-69
2022/10/05 03:12:37;;;;;;;1999.90;999.90;;;12.70;99.90;;;;;;4993168;28;20423;-68
2022/10/05 03:15:19;;;;;;;1999.90;999.90;;;12.70;99.90;;;;;;4993252;28;20536;-69
2022/10/05 03:18:13;;;;;;;1999.90;999.90;;;12.80;99.90;;;;;;4993058;28;20910;-68
2022/10/05 03:20:50;;;;;;;1999.90;999.90;;;12.80;99.90;;;;;;4994626;28;20800;-69
2022/10/05 03:23:35;;;;;;;1999.90;999.90;;;12.80;99.90;;;;;;4994626;28;20405;-70
2022/10/05 03:26:17;;;;;;;1999.90;999.90;;;12.80;99.90;;;;;;4993173;28;21039;-68
2022/10/05 03:28:55;;;;;;;1999.90;999.90;;;12.80;99.90;;;;;;4993110;28;20845;-68
2022/10/05 03:31:31;;;;;;;1999.90;999.90;;;12.90;99.90;;;;;;4994438;28;20492;-69
2022/10/05 03:33:57;;;;;;;1999.90;999.90;;;12.90;99.90;;;;;;4994000;28;20412;-68
2022/10/05 03:36:52;;;;;;;1999.90;999.90;;;12.80;99.90;;;;;;4993570;28;20456;-69
2022/10/05 03:39:36;;;;;;;1999.90;999.90;;;12.70;99.90;;;;;;4982697;28;20193;-68
2022/10/05 03:42:17;;;;;;;1999.90;999.90;;;12.80;99.90;;;;;;4993171;28;20389;-69
2022/10/05 03:44:48;;;;;;;1999.90;999.90;;;12.70;99.90;;;;;;4993755;28;20444;-68
2022/10/05 03:47:31;;;;;;;1999.90;999.90;;;12.80;99.90;;;;;;4992645;28;20480;-68
2022/10/05 03:50:05;;;;;;;1999.90;999.90;;;12.90;99.90;;;;;;4993391;28;20401;-69
2022/10/05 03:52:43;;;;;;;1999.90;999.90;;;12.90;99.90;;;;;;4992940;28;20408;-68
2022/10/05 03:55:29;;;;;;;1999.90;999.90;;;12.90;99.90;;;;;;4992731;28;20457;-68
2022/10/05 03:57:58;;;;;;;1999.90;999.90;;;12.90;99.90;;;;;;4992589;28;20405;-68
2022/10/05 04:00:27;;;;;;;1999.90;999.90;;;13.00;99.90;;;;;;4992720;28;20427;-68
2022/10/05 04:03:09;;;;;;;1999.90;999.90;;;13.00;99.90;;;;;;4992700;28;20484;-68
2022/10/05 04:06:00;;;;;;;1999.90;999.90;;;13.00;99.90;;;;;;4992668;28;20422;-68
2022/10/05 04:08:38;;;;;;;1999.90;999.90;;;12.90;99.90;;;;;;4992475;28;20405;-68
2022/10/05 04:11:26;;;;;;;1999.90;999.90;;;12.90;99.90;;;;;;4992600;28;20469;-68
2022/10/05 04:14:03;;;;;;;1999.90;999.90;;;12.80;99.90;;;;;;4985215;28;20422;-68
2022/10/05 04:16:58;;;;;;;1999.90;999.90;;;12.80;99.90;;;;;;4993326;28;20977;-69
2022/10/05 04:19:33;;;;;;;1999.90;999.90;;;12.80;99.90;;;;;;4992564;28;20810;-69
2022/10/05 04:22:05;;;;;;;1999.90;999.90;;;12.80;99.90;;;;;;4992719;28;20745;-68
2022/10/05 04:24:39;;;;;;;1999.90;999.90;;;12.80;99.90;;;;;;4992647;28;20549;-69
2022/10/05 04:27:31;;;;;;;1999.90;999.90;;;12.80;99.90;;;;;;4992953;28;20435;-68
2022/10/05 04:30:23;;;;;;;1999.90;999.90;;;12.80;99.90;;;;;;4993428;28;20414;-69
2022/10/05 04:32:51;;;;;;;1999.90;999.90;;;12.80;99.90;;;;;;4987870;28;20443;-68
2022/10/05 04:35:28;;;;;;;1999.90;999.90;;;12.90;99.90;;;;;;4992273;28;20486;-68
2022/10/05 04:38:18;;;;;;;1999.90;999.90;;;12.90;99.90;;;;;;4992106;28;20400;-69
2022/10/05 04:40:47;;;;;;;1999.90;999.90;;;12.90;99.90;;;;;;4992384;28;20395;-68
2022/10/05 04:43:26;;;;;;;1999.90;999.90;;;12.90;99.90;;;;;;4992431;28;20818;-69
2022/10/05 04:45:59;;;;;;;1999.90;999.90;;;13.00;99.90;;;;;;4995573;28;20448;-69
2022/10/05 04:49:03;;;;;;;1999.90;999.90;;;13.10;99.90;;;;;;4996054;28;20394;-69
2022/10/05 04:52:08;;;;;;;1999.90;999.90;;;13.10;99.90;;;;;;4962709;28;20504;-69
2022/10/05 04:54:54;;;;;;;1999.90;999.90;;;13.20;99.90;;;;;;4994590;28;20928;-68
2022/10/05 04:57:28;;;;;;;1999.90;999.90;;;13.10;99.90;;;;;;4995818;28;20411;-69
2022/10/05 04:59:54;;;;;;;1999.90;999.90;;;13.10;99.90;;;;;;4995984;28;20798;-69
2022/10/05 05:02:53;;;;;;;1999.90;999.90;;;13.10;99.90;;;;;;4995996;28;20398;-69
2022/10/05 05:05:40;;;;;;;1999.90;999.90;;;13.00;99.90;;;;;;4996718;28;20190;-69
2022/10/05 05:08:14;;;;;;;1999.90;999.90;;;13.00;99.90;;;;;;4995485;28;20405;-69
2022/10/05 05:10:43;;;;;;;1999.90;999.90;;;12.90;99.90;;;;;;4995779;28;20390;-68
2022/10/05 05:13:21;;;;;;;1999.90;999.90;;;12.80;99.90;;;;;;4996202;28;20533;-69
2022/10/05 05:16:15;;;;;;;1999.90;999.90;;;12.80;99.90;;;;;;4996112;28;20540;-69
2022/10/05 05:19:03;;;;;;;1999.90;999.90;;;12.80;99.90;;;;;;4995920;28;20443;-69
2022/10/05 05:21:54;;;;;;;1999.90;999.90;;;12.70;99.90;;;;;;4996527;28;20399;-69
2022/10/05 05:24:23;;;;;;;1999.90;999.90;;;12.70;99.90;;;;;;4990767;28;20780;-69
2022/10/05 05:27:02;;;;;;;1999.90;999.90;;;12.70;99.90;;;;;;4996240;28;20414;-69
2022/10/05 05:30:09;;;;;;;1999.90;999.90;;;12.70;99.90;;;;;;4996039;28;20389;-68
2022/10/05 05:32:40;;;;;;;1999.90;999.90;;;12.70;99.90;;;;;;4993064;28;20788;-69
2022/10/05 05:35:23;;;;;;;1999.90;999.90;;;12.70;99.90;;;;;;4995331;28;20462;-69
2022/10/05 05:38:16;;;;;;;1999.90;999.90;;;12.60;99.90;;;;;;4994983;28;20766;-69
2022/10/05 05:40:54;;;;;;;1999.90;999.90;;;12.70;99.90;;;;;;4995773;28;20408;-69
2022/10/05 05:43:26;;;;;;;1999.90;999.90;;;12.70;99.90;;;;;;4996181;28;20405;-69
2022/10/05 05:45:59;;;;;;;1999.90;999.90;;;12.80;99.90;;;;;;4996029;28;20452;-69
2022/10/05 05:48:27;;;;;;;1999.90;999.90;;;12.80;99.90;;;;;;4995170;28;20493;-69
2022/10/05 05:51:16;;;;;;;1999.90;999.90;;;12.80;99.90;;;;;;4995033;28;20410;-69
2022/10/05 05:53:48;;;;;;;1999.90;999.90;;;12.80;99.90;;;;;;4995368;28;20409;-68
2022/10/05 05:56:19;;;;;;;1999.90;999.90;;;12.90;99.90;;;;;;4995299;28;20820;-69
2022/10/05 05:58:55;;;;;;;1999.90;999.90;;;12.90;99.90;;;;;;4995434;28;20476;-69
2022/10/05 06:01:32;;;;;;;1999.90;999.90;;;13.00;99.90;;;;;;4995678;28;20770;-69
2022/10/05 06:04:11;;;;;;;1999.90;999.90;;;13.10;99.90;;;;;;4995618;28;20440;-69
2022/10/05 06:06:42;;;;;;;1999.90;999.90;;;13.20;99.90;;;;;;4995594;28;20887;-69
2022/10/05 06:09:34;;;;;;;1999.90;999.90;;;13.30;99.90;;;;;;4995139;28;20890;-69
2022/10/05 06:12:06;;;;;;;1999.90;999.90;;;13.40;99.90;;;;;;4995407;28;20419;-69
2022/10/05 06:14:39;;;;;;;1999.90;999.90;;;13.50;99.90;;;;;;4994960;28;20402;-68
2022/10/05 06:17:24;;;;;;;1999.90;999.90;;;13.50;99.90;;;;;;4994241;28;20823;-68
2022/10/05 06:19:53;;;;;;;1999.90;999.90;;;13.60;99.90;;;;;;4994698;28;20411;-69
2022/10/05 06:22:32;;;;;;;1999.90;999.90;;;13.50;99.90;;;;;;4994803;28;20415;-69
2022/10/05 06:25:10;;;;;;;1999.90;999.90;;;13.60;99.90;;;;;;4995017;28;20509;-70
2022/10/05 06:27:38;;;;;;;1999.90;999.90;;;13.70;99.90;;;;;;4994715;28;20483;-69
2022/10/05 06:30:12;;;;;;;1999.90;999.90;;;13.70;99.90;;;;;;4994476;28;20814;-69
2022/10/05 06:32:53;;;;;;;1999.90;999.90;;;13.70;99.90;;;;;;4994808;28;20547;-69
2022/10/05 06:35:55;;;;;;;1999.90;999.90;;;13.80;99.90;;;;;;4995341;28;20462;-69
2022/10/05 06:38:23;;;;;;;1999.90;999.90;;;13.90;99.90;;;;;;4995079;28;20411;-68
2022/10/05 06:41:10;;;;;;;1999.90;999.90;;;13.90;99.90;;;;;;4994045;28;20414;-68
2022/10/05 06:43:54;;;;;;;1999.90;999.90;;;14.00;99.90;;;;;;4993916;28;20402;-68
2022/10/05 06:46:30;;;;;;;1999.90;999.90;;;14.10;99.90;;;;;;4993609;28;20441;-68
2022/10/05 06:49:19;;;;;;;1999.90;999.90;;;14.10;99.90;;;;;;4993883;28;20407;-69
2022/10/05 06:52:01;;;;;;;1999.90;999.90;;;14.10;99.90;;;;;;4989467;28;20837;-69
2022/10/05 06:54:45;;;;;;;1999.90;999.90;;;14.00;99.90;;;;;;4994673;28;20417;-69
2022/10/05 06:57:32;;;;;;;1999.90;999.90;;;14.10;99.90;;;;;;4993617;28;20416;-68
2022/10/05 07:00:00;;;;;;;1999.90;999.90;;;14.20;99.90;;;;;;4993679;28;20465;-68
2022/10/05 07:02:50;;;;;;;1999.90;999.90;;;14.30;99.90;;;;;;4994403;28;20776;-69
2022/10/05 07:05:49;;;;;;;1999.90;999.90;;;14.40;99.90;;;;;;4994278;28;20790;-69
2022/10/05 07:08:37;;;;;;;1999.90;999.90;;;14.40;99.90;;;;;;4992828;28;20913;-68
2022/10/05 07:11:48;;;;;;;1999.90;999.90;;;14.50;99.90;;;;;;4993833;28;20407;-69
2022/10/05 07:14:28;;;;;;;1999.90;999.90;;;14.50;99.90;;;;;;4993799;28;20400;-68
2022/10/05 07:17:35;;;;;;;1999.90;999.90;;;14.40;99.90;;;;;;4993879;28;20836;-69
2022/10/05 07:20:07;;;;;;;1999.90;999.90;;;14.40;99.90;;;;;;4994718;28;20400;-68
2022/10/05 07:23:02;;;;;;;1999.90;999.90;;;14.40;99.90;;;;;;4994061;28;20413;-69
2022/10/05 07:25:48;;;;;;;1999.90;999.90;;;14.40;99.90;;;;;;4993750;28;21150;-69
2022/10/05 07:28:29;;;;;;;1999.90;999.90;;;14.40;99.90;;;;;;4993855;28;20468;-69
2022/10/05 07:31:12;;;;;;;1999.90;999.90;;;14.40;99.90;;;;;;4994119;28;20408;-69
2022/10/05 07:33:50;;;;;;;1999.90;999.90;;;14.40;99.90;;;;;;4994247;28;20408;-69
2022/10/05 07:39:30;;;;;;;1999.90;999.90;;;14.50;99.90;;;;;;4993515;28;20434;-69
2022/10/05 07:42:24;;;;;;;1999.90;999.90;;;14.50;99.90;;;;;;4993713;28;20927;-69
2022/10/05 07:44:57;;;;;;;1999.90;999.90;;;14.70;99.90;;;;;;4992595;28;20460;-68
2022/10/05 07:47:42;;;;;;;1999.90;999.90;;;14.60;99.90;;;;;;4992982;28;20507;-69
2022/10/05 07:50:19;;;;;;;1999.90;999.90;;;14.70;99.90;;;;;;4993080;28;20409;-68
2022/10/05 07:52:55;;;;;;;1999.90;999.90;;;14.70;99.90;;;;;;4993110;28;20453;-69
2022/10/05 07:55:48;;;;;;;1999.90;999.90;;;14.80;99.90;;;;;;4993040;28;20457;-69
2022/10/05 07:58:54;;;;;;;1999.90;999.90;;;14.90;99.90;;;;;;4992773;28;20435;-68
2022/10/05 08:01:40;;;;;;;1999.90;999.90;;;15.00;99.90;;;;;;4992876;28;20399;-69
2022/10/05 08:04:26;;;;;;;1999.90;999.90;;;15.20;99.90;;;;;;4993078;28;20474;-68
2022/10/05 08:06:58;;;;;;;1999.90;999.90;;;15.30;99.90;;;;;;4992145;28;20429;-69
2022/10/05 08:09:49;;;;;;;1999.90;999.90;;;15.40;99.90;;;;;;4992822;28;20423;-69
2022/10/05 08:12:38;;;;;;;1999.90;999.90;;;15.50;99.90;;;;;;4992789;28;20418;-69
2022/10/05 08:15:21;;;;;;;1999.90;999.90;;;15.50;99.90;;;;;;4993508;28;20427;-69
2022/10/05 08:17:59;;;;;;;1999.90;999.90;;;15.70;99.90;;;;;;4993681;28;20397;-69
2022/10/05 08:20:31;;;;;;;1999.90;999.90;;;15.70;99.90;;;;;;4996440;28;20477;-69
2022/10/05 08:23:04;;;;;;;1999.90;999.90;;;15.90;99.90;;;;;;4997036;28;20531;-69
2022/10/05 08:25:57;;;;;;;1999.90;999.90;;;16.00;99.90;;;;;;4996544;28;20422;-69
2022/10/05 08:28:29;;;;;;;1999.90;999.90;;;16.10;99.90;;;;;;4996870;28;20451;-68
2022/10/05 08:31:19;;;;;;;1999.90;999.90;;;16.10;99.90;;;;;;4996843;28;20967;-69
2022/10/05 08:33:57;;;;;;;1999.90;999.90;;;16.20;99.90;;;;;;4996430;28;20422;-69
2022/10/05 08:36:42;;;;;;;1999.90;999.90;;;16.40;99.90;;;;;;4996189;28;20457;-68
2022/10/05 08:39:16;;;;;;;1999.90;999.90;;;16.50;99.90;;;;;;4996262;28;20404;-68
2022/10/05 08:42:01;;;;;;;1999.90;999.90;;;16.50;99.90;;;;;;4997628;28;20412;-69
2022/10/05 08:44:54;;;;;;;1999.90;999.90;;;16.60;99.90;;;;;;4996572;28;20972;-69
2022/10/05 08:47:28;;;;;;;1999.90;999.90;;;16.70;99.90;;;;;;4994193;28;20411;-71
2022/10/05 08:50:26;;;;;;;1999.90;999.90;;;16.80;99.90;;;;;;4995332;28;20436;-71
2022/10/05 08:53:16;;;;;;;1999.90;999.90;;;17.00;99.90;;;;;;4962544;28;20916;-71
2022/10/05 08:55:45;;;;;;;1999.90;999.90;;;17.00;99.90;;;;;;4996325;28;20817;-70
2022/10/05 08:58:42;;;;;;;1999.90;999.90;;;17.00;99.90;;;;;;4995546;28;20431;-69
2022/10/05 09:01:56;;;;;;;1999.90;999.90;;;17.10;99.90;;;;;;4995801;28;20413;-70
2022/10/05 09:04:47;;;;;;;1999.90;999.90;;;17.10;99.90;;;;;;4990689;28;20463;-70
2022/10/05 09:07:15;;;;;;;1999.90;999.90;;;17.20;99.90;;;;;;4995888;28;20997;-69
2022/10/05 09:10:03;;;;;;;1999.90;999.90;;;17.20;99.90;;;;;;4996918;28;20526;-68
2022/10/05 09:13:08;;;;;;;1999.90;999.90;;;17.30;99.90;;;;;;5012032;28;20429;-68
2022/10/05 09:15:55;;;;;;;1999.90;999.90;;;17.40;99.90;;;;;;4995745;28;20466;-71
2022/10/05 09:18:44;;;;;;;1999.90;999.90;;;17.50;99.90;;;;;;5008026;28;20408;-70
2022/10/05 09:21:26;;;;;;;1999.90;999.90;;;17.60;99.90;;;;;;5002651;28;20770;-71
2022/10/05 09:24:11;;;;;;;1999.90;999.90;;;17.70;99.90;;;;;;4995340;28;20424;-70
2022/10/05 09:26:53;;;;;;;1999.90;999.90;;;17.80;99.90;;;;;;4996658;28;20430;-73
2022/10/05 09:29:53;;;;;;;1999.90;999.90;;;17.80;99.90;;;;;;5011595;28;20422;-69
2022/10/05 09:32:56;;;;;;;1999.90;999.90;;;17.90;99.90;;;;;;4995116;28;20748;-69
2022/10/05 09:36:14;;;;;;;1999.90;999.90;;;17.90;99.90;;;;;;4994460;28;20976;-69
2022/10/05 09:39:04;;;;;;;1999.90;999.90;;;17.90;99.90;;;;;;4994605;28;20404;-69
2022/10/05 09:42:11;;;;;;;1999.90;999.90;;;18.00;99.90;;;;;;4995092;28;20395;-68
2022/10/05 09:45:22;;;;;;;1999.90;999.90;;;18.10;99.90;;;;;;4950642;29;20427;-69
2022/10/05 09:48:14;;;;;;;1999.90;999.90;;;18.20;99.90;;;;;;4950190;29;20508;-69
2022/10/05 09:50:45;;;;;;;1999.90;999.90;;;18.40;99.90;;;;;;4993418;28;20410;-69
2022/10/05 09:53:42;;;;;;;1999.90;999.90;;;18.40;99.90;;;;;;4994665;28;20768;-69
2022/10/05 09:56:53;;;;;;;1999.90;999.90;;;18.50;99.90;;;;;;4993337;28;20485;-69
2022/10/05 09:59:18;;;;;;;1999.90;999.90;;;18.50;99.90;;;;;;4971572;28;20423;-69
2022/10/05 10:02:05;;;;;;;1999.90;999.90;;;18.50;99.90;;;;;;4993849;28;21034;-69
2022/10/05 10:04:34;;;;;;;1999.90;999.90;;;18.50;99.90;;;;;;4994583;28;20170;-69
2022/10/05 10:07:14;;;;;;;1999.90;999.90;;;18.50;99.90;;;;;;4993733;28;20398;-69
2022/10/05 10:10:09;;;;;;;1999.90;999.90;;;18.60;99.90;;;;;;4993889;28;20413;-69
2022/10/05 10:12:55;;;;;;;1999.90;999.90;;;18.80;99.90;;;;;;4994160;28;20440;-69
2022/10/05 10:15:24;;;;;;;1999.90;999.90;;;19.10;99.90;;;;;;4994160;28;20456;-69
2022/10/05 10:18:31;;;;;;;1999.90;999.90;;;19.40;99.90;;;;;;4994050;28;20421;-68
2022/10/05 10:21:19;;;;;;;1999.90;999.90;;;19.50;99.90;;;;;;5003377;28;20926;-69
2022/10/05 10:24:03;;;;;;;1999.90;999.90;;;19.50;99.90;;;;;;5013107;28;20390;-68
2022/10/05 10:26:55;;;;;;;1999.90;999.90;;;19.60;99.90;;;;;;5013041;28;20773;-68
2022/10/05 10:29:46;;;;;;;1999.90;999.90;;;19.60;99.90;;;;;;5013002;28;20426;-68
2022/10/05 10:32:22;;;;;;;1999.90;999.90;;;19.80;99.90;;;;;;5012633;28;20403;-68
2022/10/05 10:35:17;;;;;;;1999.90;999.90;;;19.80;99.90;;;;;;5013268;28;20429;-68
2022/10/05 10:38:02;;;;;;;1999.90;999.90;;;19.60;99.90;;;;;;5011994;28;20482;-68
2022/10/05 10:40:27;;;;;;;1999.90;999.90;;;19.50;99.90;;;;;;5012840;28;20888;-68
2022/10/05 10:43:14;;;;;;;1999.90;999.90;;;19.40;99.90;;;;;;5012136;28;20461;-68
2022/10/05 10:46:14;;;;;;;1999.90;999.90;;;19.40;99.90;;;;;;5012590;28;20207;-68
2022/10/05 10:48:54;;;;;;;1999.90;999.90;;;19.60;99.90;;;;;;5012102;28;20443;-68
2022/10/05 10:51:52;;;;;;;1999.90;999.90;;;19.60;99.90;;;;;;5012898;28;20399;-68
2022/10/05 10:54:47;;;;;;;1999.90;999.90;;;19.70;99.90;;;;;;5012264;28;20397;-68
2022/10/05 10:57:23;;;;;;;1999.90;999.90;;;20.00;99.90;;;;;;5002427;28;20529;-68
2022/10/05 11:00:04;;;;;;;1999.90;999.90;;;20.30;99.90;;;;;;5012655;28;20394;-68
2022/10/05 11:02:57;;;;;;;1999.90;999.90;;;20.50;99.90;;;;;;5011386;28;20412;-68
2022/10/05 11:05:41;;;;;;;1999.90;999.90;;;20.70;99.90;;;;;;5012175;28;20432;-68
2022/10/05 11:08:06;;;;;;;1999.90;999.90;;;20.80;99.90;;;;;;5011279;28;20429;-68
2022/10/05 11:10:53;;;;;;;1999.90;999.90;;;21.00;99.90;;;;;;5012486;28;20917;-68
2022/10/05 11:13:46;;;;;;;1999.90;999.90;;;21.10;99.90;;;;;;5012288;28;20783;-68
2022/10/05 11:16:59;;;;;;;1999.90;999.90;;;21.30;99.90;;;;;;5011713;28;20447;-69
2022/10/05 11:19:49;;;;;;;1999.90;999.90;;;21.40;99.90;;;;;;5012002;28;20989;-69
2022/10/05 11:22:37;;;;;;;1999.90;999.90;;;21.60;99.90;;;;;;5012483;28;20408;-69
2022/10/05 11:25:30;;;;;;;1999.90;999.90;;;21.80;99.90;;;;;;5012253;28;20417;-69
2022/10/05 11:28:26;;;;;;;1999.90;999.90;;;22.40;99.90;;;;;;5005677;28;20418;-69
2022/10/05 11:31:19;;;;;;;1999.90;999.90;;;23.20;99.90;;;;;;5002501;28;20755;-68
2022/10/05 11:34:04;;;;;;;1999.90;999.90;;;24.00;99.90;;;;;;4992207;28;20386;-68
2022/10/05 11:36:48;;;;;;;1999.90;999.90;;;24.80;99.90;;;;;;4991998;28;20430;-68
2022/10/05 11:39:22;;;;;;;1999.90;999.90;;;25.50;99.90;;;;;;4991497;28;20422;-68
2022/10/05 11:42:16;;;;;;;1999.90;999.90;;;25.80;91.10;;;;;;4992575;28;20407;-68
2022/10/05 11:44:56;;;;;;;1999.90;999.90;;;26.00;90.10;;;;;;4992037;28;20360;-68
2022/10/05 11:47:34;;;;;;;1999.90;999.90;;;26.40;82.30;;;;;;5042517;23;20491;-70
2022/10/05 11:50:19;;;;;;;1999.90;999.90;;;26.60;71.80;;;;;;5000396;28;20391;-71
2022/10/05 11:53:13;;;;;;;1999.90;999.90;;;26.70;65.00;;;;;;4981305;28;20376;-71
2022/10/05 11:56:20;;;;;;;1999.90;999.90;;;26.80;61.30;;;;;;4988479;28;20503;-71
2022/10/05 11:58:53;;;;;;;1999.90;999.90;;;26.90;56.20;;;;;;4986698;28;20843;-70
2022/10/05 12:01:33;;;;;;;1999.90;999.90;;;26.80;54.90;;;;;;4993201;28;20412;-70
2022/10/05 12:04:19;;;;;;;1999.90;999.90;;;26.70;55.10;;;;;;4993793;28;20367;-70
2022/10/05 12:06:59;;;;;;;1999.90;999.90;;;26.60;57.50;;;;;;4991663;28;20912;-70
2022/10/05 12:09:25;;;;;;;1999.90;999.90;;;26.70;55.20;;;;;;4988446;28;21005;-70
2022/10/05 12:12:14;;;;;;;1999.90;999.90;;;26.80;52.50;;;;;;4993326;28;20499;-70
2022/10/05 12:14:58;;;;;;;1999.90;999.90;;;27.00;55.60;;;;;;4983019;28;20681;-71
2022/10/05 12:17:43;;;;;;;1999.90;999.90;;;27.50;50.50;;;;;;4984943;28;20458;-71
2022/10/05 12:20:21;;;;;;;1999.90;999.90;;;27.80;45.90;;;;;;4992409;28;20451;-70
2022/10/05 12:22:56;;;;;;;1999.90;999.90;;;27.90;42.60;;;;;;4992094;28;20397;-70
2022/10/05 12:25:42;;;;;;;1999.90;999.90;;;28.00;43.70;;;;;;4992316;28;20781;-70
2022/10/05 12:28:25;;;;;;;1999.90;999.90;;;28.00;40.90;;;;;;4990578;28;20508;-70
2022/10/05 12:31:13;;;;;;;1999.90;999.90;;;28.00;44.00;;;;;;4998558;28;20408;-71
2022/10/05 12:34:02;;;;;;;1999.90;999.90;;;28.30;44.70;;;;;;4992733;28;20409;-71
2022/10/05 12:36:33;;;;;;;1999.90;999.90;;;28.90;43.40;;;;;;4990577;28;20468;-71
2022/10/05 12:39:10;;;;;;;1999.90;999.90;;;29.30;37.10;;;;;;4992082;28;20409;-71
2022/10/05 12:41:48;;;;;;;1999.90;999.90;;;29.30;38.90;;;;;;4992347;28;20834;-71
2022/10/05 12:44:29;;;;;;;1999.90;999.90;;;29.20;36.00;;;;;;4985636;28;20397;-71
2022/10/05 12:46:57;;;;;;;1999.90;999.90;;;29.30;36.70;;;;;;4988816;28;20532;-71
2022/10/05 12:49:59;;;;;;;1999.90;999.90;;;29.60;35.30;;;;;;4992007;28;20464;-71
2022/10/05 12:52:46;;;;;;;1999.90;999.90;;;29.80;33.70;;;;;;4990819;28;20404;-71
2022/10/05 12:55:27;;;;;;;1999.90;999.90;;;30.30;33.10;;;;;;4979737;28;20408;-71
2022/10/05 12:58:08;;;;;;;1999.90;999.90;;;30.70;28.60;;;;;;4990035;28;20443;-71
2022/10/05 13:00:38;;;;;;;1999.90;999.90;;;30.50;27.50;;;;;;4987373;28;20403;-71
2022/10/05 13:03:33;;;;;;;1999.90;999.90;;;30.50;26.90;;;;;;4991935;28;20400;-71
2022/10/05 13:06:29;;;;;;;1999.90;999.90;;;30.50;25.80;;;;;;4993003;28;20436;-71
2022/10/05 13:09:09;;;;;;;1999.90;999.90;;;30.70;25.10;;;;;;4995246;28;20408;-71
2022/10/05 13:11:59;;;;;;;1999.90;999.90;;;30.80;23.60;;;;;;4995436;28;20417;-71
2022/10/05 13:14:34;;;;;;;1999.90;999.90;;;31.00;22.30;;;;;;4995244;28;20412;-71
2022/10/05 13:17:05;;;;;;;1999.90;999.90;;;31.00;22.20;;;;;;4993491;28;20472;-71